Terminal Aerodrome Forecast
Issued by NWS Charleston, WV

Current Version | Previous Version | Text Only | Print | Product List | Glossary Off
Versions: 1 2 3 4 5 6 7 8 9 10 11 12 13 14 15 16 17 18 19 20 21 22 23

000
FTUS41 KRLX 302300
TAFPKB
TAF
KPKB 302334Z 0100/0124 00000KT P6SM BKN060 BKN080 BKN110
     FM010400 00000KT 6SM BR BKN035
     FM010700 00000KT 6SM BR BKN025
     FM010900 00000KT 6SM BR BKN010
     FM011500 00000KT P6SM SCT014
     FM011800 VRB03KT P6SM SCT040=

USA.gov is the U.S. government's official web portal to all federal, state and local government web resources and services.